createdAt,value
2018-09-13T00:02:13.217Z,12.93
2018-09-13T00:04:41.565Z,8.70
2018-09-13T00:07:09.930Z,10.07
2018-09-13T00:09:38.298Z,11.73
2018-09-13T00:12:06.660Z,13.73
2018-09-13T00:14:35.002Z,11.23
2018-09-13T00:17:03.388Z,11.13
2018-09-13T00:19:31.786Z,9.30
2018-09-13T00:22:00.175Z,10.83
2018-09-13T00:24:28.597Z,14.80
2018-09-13T00:26:57.247Z,9.57
2018-09-13T00:29:25.632Z,12.33
2018-09-13T00:31:53.992Z,8.67
2018-09-13T00:34:22.427Z,10.73
2018-09-13T00:36:51.041Z,15.40
2018-09-13T00:39:19.383Z,9.90
2018-09-13T00:41:47.754Z,12.73
2018-09-13T00:44:16.118Z,9.33
2018-09-13T00:46:44.487Z,14.37
2018-09-13T00:49:12.834Z,10.03
2018-09-13T00:51:41.185Z,11.03
2018-09-13T00:54:09.553Z,9.17
2018-09-13T00:56:37.880Z,10.50
2018-09-13T00:59:06.350Z,9.03
2018-09-13T01:01:34.822Z,14.23
2018-09-13T01:04:03.163Z,12.00
2018-09-13T01:06:31.529Z,8.90
2018-09-13T01:09:00.094Z,10.57
2018-09-13T01:11:28.811Z,8.93
2018-09-13T01:13:57.169Z,13.47
2018-09-13T01:16:25.529Z,13.70
2018-09-13T01:18:53.887Z,10.53
2018-09-13T01:21:22.206Z,10.70
2018-09-13T01:23:50.556Z,10.30
2018-09-13T01:26:18.893Z,10.33
2018-09-13T01:28:47.304Z,9.37
2018-09-13T01:31:15.682Z,10.87
2018-09-13T01:33:44.074Z,10.10
2018-09-13T01:36:12.829Z,10.73
2018-09-13T01:38:41.209Z,13.43
2018-09-13T01:41:09.553Z,10.20
2018-09-13T01:43:37.944Z,13.77
2018-09-13T01:46:06.378Z,10.27
2018-09-13T01:48:34.698Z,12.23
2018-09-13T01:51:03.192Z,9.07
2018-09-13T01:53:31.607Z,13.00
2018-09-13T01:55:59.943Z,8.13
2018-09-13T01:58:28.310Z,8.87
2018-09-13T02:03:31.400Z,10.43
2018-09-13T02:05:59.743Z,11.50
2018-09-13T02:08:28.141Z,9.30
2018-09-13T02:10:56.563Z,10.97
2018-09-13T02:13:25.035Z,12.33
2018-09-13T02:15:53.378Z,10.73
2018-09-13T02:18:21.778Z,11.07
2018-09-13T02:20:50.151Z,11.17
2018-09-13T02:23:18.545Z,9.00
2018-09-13T02:25:46.875Z,8.43
2018-09-13T02:28:15.213Z,10.30
2018-09-13T02:30:43.628Z,10.37
2018-09-13T02:33:11.958Z,11.40
2018-09-13T02:35:40.385Z,14.83
2018-09-13T02:38:08.765Z,9.77
2018-09-13T02:40:37.137Z,11.63
2018-09-13T02:43:05.550Z,10.20
2018-09-13T02:45:33.953Z,12.67
2018-09-13T02:48:02.302Z,7.23
2018-09-13T02:50:30.628Z,10.90
2018-09-13T02:52:59.020Z,9.50
2018-09-13T02:55:27.337Z,10.53
2018-09-13T02:57:55.715Z,9.63
2018-09-13T03:00:24.475Z,10.10
2018-09-13T03:02:52.796Z,11.10
2018-09-13T03:05:21.119Z,9.43
2018-09-13T03:07:49.456Z,10.57
2018-09-13T03:10:17.835Z,11.07
2018-09-13T03:12:46.214Z,9.63
2018-09-13T03:15:15.767Z,9.40
2018-09-13T03:17:44.250Z,10.57
2018-09-13T03:20:12.578Z,15.90
2018-09-13T03:22:40.926Z,15.87
2018-09-13T03:25:10.359Z,15.83
2018-09-13T03:27:38.765Z,14.13
2018-09-13T03:30:08.197Z,15.60
2018-09-13T03:32:36.639Z,10.47
2018-09-13T03:35:06.108Z,14.93
2018-09-13T03:37:34.460Z,11.83
2018-09-13T03:40:03.364Z,8.27
2018-09-13T03:42:31.734Z,8.93
2018-09-13T03:47:40.935Z,9.50
2018-09-13T03:50:11.212Z,14.73
2018-09-13T03:52:40.732Z,10.17
2018-09-13T03:55:10.567Z,9.27
2018-09-13T03:57:39.279Z,14.83
2018-09-13T04:00:08.095Z,13.33
2018-09-13T04:02:36.544Z,12.10
2018-09-13T04:05:05.089Z,9.30
2018-09-13T04:07:33.884Z,9.77
2018-09-13T04:10:02.254Z,9.93
2018-09-13T04:12:31.753Z,9.80
2018-09-13T04:15:00.148Z,11.60
2018-09-13T04:17:28.560Z,11.93
2018-09-13T04:19:56.976Z,7.80
2018-09-13T04:22:25.380Z,10.70
2018-09-13T04:24:54.070Z,7.80
2018-09-13T04:27:22.527Z,14.80
2018-09-13T04:29:50.942Z,10.47
2018-09-13T04:32:19.312Z,14.50
2018-09-13T04:34:47.706Z,9.03
2018-09-13T04:37:17.073Z,10.37
2018-09-13T04:39:45.484Z,10.50
2018-09-13T04:42:14.092Z,10.47
2018-09-13T04:44:42.530Z,13.43
2018-09-13T04:47:10.952Z,13.13
2018-09-13T04:49:39.470Z,9.53
2018-09-13T04:52:07.912Z,10.17
2018-09-13T04:54:36.320Z,14.37
2018-09-13T04:57:04.843Z,15.93
2018-09-13T04:59:33.183Z,13.57
2018-09-13T05:02:01.578Z,13.40
2018-09-13T05:04:30.273Z,12.80
2018-09-13T05:06:58.625Z,9.53
2018-09-13T05:09:27.060Z,12.77
2018-09-13T05:11:55.401Z,10.23
2018-09-13T05:14:24.831Z,16.37
2018-09-13T05:16:53.211Z,12.53
2018-09-13T05:19:21.568Z,15.50
2018-09-13T05:21:50.116Z,10.43
2018-09-13T05:24:18.565Z,10.53
2018-09-13T05:26:46.899Z,16.10
2018-09-13T05:29:15.247Z,13.43
2018-09-13T05:31:43.722Z,12.63
2018-09-13T05:34:12.076Z,17.23
2018-09-13T05:36:40.512Z,14.10
2018-09-13T05:39:12.688Z,10.37
2018-09-13T05:41:42.030Z,10.53
2018-09-13T05:44:10.321Z,12.37
2018-09-13T05:46:38.973Z,16.03
2018-09-13T05:49:07.436Z,14.57
2018-09-13T05:51:36.103Z,13.90
2018-09-13T05:54:11.146Z,16.23
2018-09-13T05:56:39.489Z,13.60
2018-09-13T05:59:07.833Z,12.67
2018-09-13T06:01:36.297Z,15.43
2018-09-13T06:04:04.644Z,16.70
2018-09-13T06:06:32.996Z,17.63
2018-09-13T06:09:01.336Z,18.80
2018-09-13T06:11:29.665Z,12.30
2018-09-13T06:13:58.009Z,13.00
2018-09-13T06:16:26.429Z,19.50
2018-09-13T06:18:54.840Z,22.20
2018-09-13T06:21:23.231Z,32.57
2018-09-13T06:23:51.591Z,27.73
2018-09-13T06:26:19.982Z,22.30
2018-09-13T06:28:48.365Z,13.10
2018-09-13T06:31:16.759Z,11.60
2018-09-13T06:33:45.432Z,12.87
2018-09-13T06:36:14.758Z,16.07
2018-09-13T06:38:43.102Z,15.00
2018-09-13T06:41:11.548Z,15.17
2018-09-13T06:43:39.839Z,12.57
2018-09-13T06:46:08.300Z,15.73
2018-09-13T06:48:36.847Z,14.43
2018-09-13T06:51:05.254Z,16.53
2018-09-13T06:53:34.015Z,15.27
2018-09-13T06:56:03.422Z,8.70
2018-09-13T06:58:32.835Z,18.13
2018-09-13T07:01:01.336Z,14.23
2018-09-13T07:03:30.690Z,11.03
2018-09-13T07:05:59.065Z,15.10
2018-09-13T07:08:27.451Z,13.50
2018-09-13T07:10:56.670Z,10.77
2018-09-13T07:13:25.479Z,13.73
2018-09-13T07:15:53.920Z,14.30
2018-09-13T07:18:22.321Z,13.77
2018-09-13T07:20:50.677Z,11.43
2018-09-13T07:23:19.015Z,12.37
2018-09-13T07:25:47.480Z,10.07
2018-09-13T07:28:15.856Z,20.47
2018-09-13T07:30:44.328Z,18.93
2018-09-13T07:33:12.681Z,15.27
2018-09-13T07:35:41.216Z,14.03
2018-09-13T07:38:09.811Z,15.60
2018-09-13T07:40:38.213Z,17.07
2018-09-13T07:43:07.659Z,15.63
2018-09-13T07:45:36.144Z,17.40
2018-09-13T07:48:04.605Z,14.17
2018-09-13T07:50:33.147Z,14.30
2018-09-13T07:53:01.475Z,15.30
2018-09-13T07:55:29.977Z,13.60
2018-09-13T07:57:58.750Z,19.37
2018-09-13T08:00:27.081Z,15.30
2018-09-13T08:02:55.480Z,14.43
2018-09-13T08:05:23.850Z,14.57
2018-09-13T08:07:52.191Z,16.50
2018-09-13T08:10:20.623Z,14.40
2018-09-13T08:12:48.970Z,15.60
2018-09-13T08:15:17.336Z,11.60
2018-09-13T08:17:45.724Z,13.30
2018-09-13T08:20:14.093Z,17.70
2018-09-13T08:22:42.461Z,18.13
2018-09-13T08:25:10.880Z,14.13
2018-09-13T08:27:39.256Z,13.07
2018-09-13T08:30:07.716Z,12.90
2018-09-13T08:32:36.100Z,16.83
2018-09-13T08:35:04.575Z,21.63
2018-09-13T08:37:32.923Z,17.10
2018-09-13T08:40:01.331Z,19.07
2018-09-13T08:42:29.773Z,17.27
2018-09-13T08:44:58.106Z,15.03
2018-09-13T08:47:26.464Z,14.57
2018-09-13T08:49:54.775Z,17.00
2018-09-13T08:52:23.091Z,19.70
2018-09-13T08:54:51.392Z,16.27
2018-09-13T08:57:19.755Z,13.60
2018-09-13T08:59:48.060Z,14.27
2018-09-13T09:02:16.422Z,14.13
2018-09-13T09:04:44.870Z,18.10
2018-09-13T09:07:13.178Z,17.17
2018-09-13T09:09:41.821Z,15.40
2018-09-13T09:12:10.363Z,21.23
2018-09-13T09:14:38.693Z,18.37
2018-09-13T09:17:07.177Z,21.23
2018-09-13T09:19:35.522Z,16.40
2018-09-13T09:22:03.845Z,18.00
2018-09-13T09:24:32.145Z,20.27
2018-09-13T09:27:00.749Z,17.67
2018-09-13T09:29:29.100Z,21.43
2018-09-13T09:31:57.452Z,19.30
2018-09-13T09:34:25.792Z,15.90
2018-09-13T09:36:54.165Z,16.43
2018-09-13T09:39:22.481Z,19.73
2018-09-13T09:41:50.815Z,18.33
2018-09-13T09:44:19.250Z,14.47
2018-09-13T09:46:47.488Z,15.07
2018-09-13T09:49:15.816Z,15.20
2018-09-13T09:51:44.134Z,15.53
2018-09-13T09:54:12.424Z,17.70
2018-09-13T09:56:40.809Z,15.97
2018-09-13T09:59:09.200Z,18.70
2018-09-13T10:01:42.900Z,18.23
2018-09-13T10:04:12.566Z,18.87
2018-09-13T10:06:41.823Z,18.53
2018-09-13T10:09:10.223Z,13.43
2018-09-13T10:11:38.623Z,19.30
2018-09-13T10:14:07.194Z,17.70
2018-09-13T10:16:40.928Z,17.27
2018-09-13T10:20:18.663Z,19.57
2018-09-13T10:22:52.525Z,18.20
2018-09-13T10:25:26.251Z,22.97
2018-09-13T10:28:00.061Z,17.03
2018-09-13T10:30:33.666Z,14.67
2018-09-13T10:33:07.465Z,16.23
2018-09-13T10:35:41.268Z,16.23
2018-09-13T10:38:14.985Z,17.07
2018-09-13T10:40:48.847Z,13.60
2018-09-13T10:43:22.615Z,15.70
2018-09-13T10:45:56.306Z,15.17
2018-09-13T10:48:29.473Z,15.83
2018-09-13T10:51:03.314Z,15.00
2018-09-13T10:53:51.077Z,19.20
2018-09-13T10:56:19.677Z,16.10
2018-09-13T10:58:48.146Z,17.80
2018-09-13T11:01:17.582Z,17.07
2018-09-13T11:03:46.194Z,16.13
2018-09-13T11:06:14.576Z,20.23
2018-09-13T11:08:42.905Z,15.83
2018-09-13T11:11:11.423Z,15.40
2018-09-13T11:14:47.842Z,21.63
2018-09-13T11:17:16.319Z,20.00
2018-09-13T11:19:44.754Z,16.17
2018-09-13T11:22:13.255Z,14.63
2018-09-13T11:24:41.704Z,17.30
2018-09-13T11:27:10.206Z,14.83
2018-09-13T11:29:38.506Z,14.10
2018-09-13T11:32:06.855Z,18.10
2018-09-13T11:34:35.224Z,23.33
2018-09-13T11:37:03.553Z,19.70
2018-09-13T11:39:31.847Z,18.07
2018-09-13T11:42:00.313Z,17.83
2018-09-13T11:44:28.661Z,18.73
2018-09-13T11:46:57.252Z,19.80
2018-09-13T11:49:25.559Z,17.20
2018-09-13T11:51:53.983Z,14.13
2018-09-13T11:54:22.390Z,14.87
2018-09-13T11:56:50.716Z,14.87
2018-09-13T11:59:19.112Z,14.50
2018-09-13T12:01:47.461Z,14.63
2018-09-13T12:04:15.792Z,11.90
2018-09-13T12:06:44.088Z,12.13
2018-09-13T12:09:13.973Z,15.97
2018-09-13T12:11:42.463Z,13.80
2018-09-13T12:14:11.133Z,17.10
2018-09-13T12:16:39.225Z,19.10
2018-09-13T12:19:08.207Z,17.30
2018-09-13T12:21:36.563Z,15.07
2018-09-13T12:24:05.658Z,14.90
2018-09-13T12:26:33.963Z,14.50
2018-09-13T12:29:02.623Z,14.33
2018-09-13T12:31:31.102Z,13.07
2018-09-13T12:33:59.608Z,14.53
2018-09-13T12:36:28.641Z,12.67
2018-09-13T12:38:57.163Z,16.67
2018-09-13T12:41:25.474Z,10.20
2018-09-13T12:43:53.801Z,16.40
2018-09-13T12:46:22.161Z,11.70
2018-09-13T12:48:50.570Z,13.90
2018-09-13T12:51:18.888Z,13.37
2018-09-13T12:53:47.253Z,15.07
2018-09-13T12:56:15.675Z,13.67
2018-09-13T12:58:44.068Z,13.03
2018-09-13T13:01:12.636Z,14.37
2018-09-13T13:03:40.988Z,15.53
2018-09-13T13:06:09.321Z,13.87
2018-09-13T13:08:37.867Z,14.40
2018-09-13T13:11:06.552Z,12.20
2018-09-13T13:13:34.915Z,12.93
2018-09-13T13:16:03.288Z,12.90
2018-09-13T13:18:31.852Z,13.87
2018-09-13T13:21:00.406Z,14.43
2018-09-13T13:23:28.843Z,17.37
2018-09-13T13:25:57.385Z,12.97
2018-09-13T13:28:25.691Z,11.40
2018-09-13T13:30:54.095Z,20.07
2018-09-13T13:33:22.477Z,11.40
2018-09-13T13:35:50.900Z,9.57
2018-09-13T13:38:19.491Z,10.27
2018-09-13T13:40:47.930Z,9.90
2018-09-13T13:43:16.267Z,17.83
2018-09-13T13:45:45.918Z,11.00
2018-09-13T13:48:14.360Z,10.73
2018-09-13T13:50:43.897Z,10.80
2018-09-13T13:53:12.297Z,9.13
2018-09-13T13:55:40.755Z,11.87
2018-09-13T13:58:10.088Z,11.97
2018-09-13T14:00:38.515Z,10.77
2018-09-13T14:03:06.956Z,8.20
2018-09-13T14:05:35.664Z,14.90
2018-09-13T14:08:04.155Z,8.83
2018-09-13T14:10:32.628Z,9.83
2018-09-13T14:13:00.990Z,12.97
2018-09-13T14:15:29.432Z,10.63
2018-09-13T14:17:58.784Z,9.50
2018-09-13T14:20:27.293Z,11.63
2018-09-13T14:22:55.731Z,15.90
2018-09-13T14:25:24.199Z,9.13
2018-09-13T14:27:52.749Z,13.03
2018-09-13T14:30:22.265Z,11.37
2018-09-13T14:32:50.648Z,8.40
2018-09-13T14:35:19.033Z,10.40
2018-09-13T14:37:47.493Z,11.17
2018-09-13T14:40:15.829Z,10.63
2018-09-13T14:42:44.219Z,10.50
2018-09-13T14:45:12.618Z,11.20
2018-09-13T14:47:41.052Z,9.37
2018-09-13T14:50:09.428Z,13.10
2018-09-13T14:52:37.914Z,10.80
2018-09-13T14:55:06.352Z,7.67
2018-09-13T14:57:34.767Z,10.83
2018-09-13T15:00:03.330Z,9.23
2018-09-13T15:02:31.662Z,7.07
2018-09-13T15:05:00.024Z,10.50
2018-09-13T15:07:28.395Z,7.43
2018-09-13T15:09:56.687Z,6.90
2018-09-13T15:12:25.079Z,9.43
2018-09-13T15:14:53.419Z,16.33
2018-09-13T15:17:21.795Z,11.77
2018-09-13T15:19:50.302Z,11.47
2018-09-13T15:22:18.627Z,8.03
2018-09-13T15:24:46.949Z,6.97
2018-09-13T15:27:15.303Z,10.57
2018-09-13T15:29:43.683Z,9.77
2018-09-13T15:32:12.030Z,6.33
2018-09-13T15:34:40.568Z,8.87
2018-09-13T15:37:09.058Z,10.97
2018-09-13T15:39:37.440Z,9.30
2018-09-13T15:42:05.795Z,12.00
2018-09-13T15:44:34.132Z,7.00
2018-09-13T15:47:02.680Z,8.27
2018-09-13T15:49:31.002Z,22.77
2018-09-13T15:51:59.330Z,9.80
2018-09-13T15:54:27.899Z,12.47
2018-09-13T15:57:03.172Z,10.80
2018-09-13T15:59:31.717Z,8.20
2018-09-13T16:02:00.198Z,11.20
2018-09-13T16:04:29.542Z,12.97
2018-09-13T16:06:58.054Z,9.17
2018-09-13T16:09:26.442Z,8.00
2018-09-13T16:11:55.765Z,11.70
2018-09-13T16:14:24.473Z,8.17
2018-09-13T16:16:53.667Z,11.07
2018-09-13T16:19:22.070Z,7.23
2018-09-13T16:21:50.571Z,8.40
2018-09-13T16:24:19.598Z,9.40
2018-09-13T16:26:48.070Z,10.17
2018-09-13T16:29:16.452Z,8.93
2018-09-13T16:31:44.846Z,8.23
2018-09-13T16:34:13.211Z,7.77
2018-09-13T16:36:46.996Z,9.10
2018-09-13T16:39:24.508Z,12.33
2018-09-13T16:41:58.072Z,7.97
2018-09-13T16:44:31.718Z,12.63
2018-09-13T16:47:06.390Z,6.43
2018-09-13T16:49:36.608Z,8.07
2018-09-13T16:52:05.004Z,9.47
2018-09-13T16:54:33.322Z,9.13
2018-09-13T16:57:02.062Z,11.50
2018-09-13T16:59:30.420Z,9.57
2018-09-13T17:01:59.170Z,7.33
2018-09-13T17:04:27.485Z,8.23
2018-09-13T17:06:55.970Z,8.93
2018-09-13T17:09:25.125Z,9.10
2018-09-13T17:11:53.448Z,7.80
2018-09-13T17:14:21.819Z,9.80
2018-09-13T17:16:50.387Z,7.13
2018-09-13T17:19:18.719Z,7.83
2018-09-13T17:21:47.053Z,11.60
2018-09-13T17:24:16.478Z,7.67
2018-09-13T17:26:44.840Z,7.57
2018-09-13T17:29:13.264Z,11.97
2018-09-13T17:31:41.619Z,11.63
2018-09-13T17:34:10.162Z,10.20
2018-09-13T17:36:38.802Z,13.00
2018-09-13T17:39:11.227Z,11.33
2018-09-13T17:41:39.666Z,6.50
2018-09-13T17:44:08.048Z,9.20
2018-09-13T17:46:36.579Z,11.60
2018-09-13T17:49:05.021Z,8.67
2018-09-13T17:51:33.401Z,8.20
2018-09-13T17:54:01.874Z,7.60
2018-09-13T17:56:30.477Z,6.77
2018-09-13T17:58:58.844Z,6.50
2018-09-13T18:01:27.360Z,8.13
2018-09-13T18:03:55.788Z,8.97
2018-09-13T18:06:24.247Z,10.90
2018-09-13T18:08:52.672Z,7.93
2018-09-13T18:11:21.198Z,8.90
2018-09-13T18:13:50.315Z,8.90
2018-09-13T18:16:18.985Z,16.10
2018-09-13T18:18:47.565Z,20.90
2018-09-13T18:21:15.957Z,15.93
2018-09-13T18:23:44.435Z,34.07
2018-09-13T18:26:12.860Z,17.97
2018-09-13T18:28:41.357Z,23.23
2018-09-13T18:31:09.856Z,16.43
2018-09-13T18:33:38.378Z,25.37
2018-09-13T18:36:06.826Z,13.40
2018-09-13T18:38:35.368Z,11.07
2018-09-13T18:41:05.035Z,11.10
2018-09-13T18:43:33.465Z,9.40
2018-09-13T18:46:01.989Z,13.00
2018-09-13T18:48:30.464Z,10.20
2018-09-13T18:50:58.866Z,9.47
2018-09-13T18:53:27.265Z,8.27
2018-09-13T18:55:55.683Z,12.77
2018-09-13T18:58:24.185Z,9.23
2018-09-13T19:00:52.682Z,10.73
2018-09-13T19:03:21.133Z,7.47
2018-09-13T19:05:49.608Z,15.70
2018-09-13T19:08:18.016Z,9.63
2018-09-13T19:10:46.582Z,12.13
2018-09-13T19:13:15.020Z,7.37
2018-09-13T19:15:43.392Z,9.60
2018-09-13T19:18:11.943Z,6.63
2018-09-13T19:20:40.479Z,10.40
2018-09-13T19:23:08.863Z,8.67
2018-09-13T19:25:43.961Z,8.87
2018-09-13T19:28:12.353Z,11.37
2018-09-13T19:30:40.755Z,9.67
2018-09-13T19:33:09.224Z,7.40
2018-09-13T19:35:37.732Z,10.33
2018-09-13T19:38:06.436Z,9.27
2018-09-13T19:40:34.939Z,9.70
2018-09-13T19:43:03.339Z,6.77
2018-09-13T19:45:31.737Z,9.00
2018-09-13T19:48:00.135Z,6.47
2018-09-13T19:50:28.614Z,7.77
2018-09-13T19:52:56.933Z,8.43
2018-09-13T19:55:25.428Z,7.97
2018-09-13T19:57:53.802Z,7.57
2018-09-13T20:00:22.183Z,9.10
2018-09-13T20:02:50.507Z,7.60
2018-09-13T20:05:18.959Z,5.90
2018-09-13T20:07:47.293Z,7.67
2018-09-13T20:10:15.781Z,7.50
2018-09-13T20:12:44.125Z,9.57
2018-09-13T20:15:12.583Z,8.80
2018-09-13T20:17:40.939Z,10.83
2018-09-13T20:20:09.332Z,8.60
2018-09-13T20:22:37.700Z,6.87
2018-09-13T20:25:06.128Z,9.27
2018-09-13T20:27:34.544Z,9.03
2018-09-13T20:30:02.941Z,9.07
2018-09-13T20:32:31.358Z,7.43
2018-09-13T20:34:59.741Z,6.93
2018-09-13T20:37:28.159Z,9.43
2018-09-13T20:39:56.526Z,8.07
2018-09-13T20:42:25.060Z,7.90
2018-09-13T20:44:53.388Z,11.03
2018-09-13T20:47:21.708Z,13.67
2018-09-13T20:49:50.023Z,9.50
2018-09-13T20:52:18.449Z,7.90
2018-09-13T20:54:46.851Z,10.77
2018-09-13T20:57:15.227Z,8.83
2018-09-13T20:59:43.588Z,8.20
2018-09-13T21:02:12.015Z,7.87
2018-09-13T21:04:40.421Z,10.60
2018-09-13T21:07:08.823Z,7.70
2018-09-13T21:09:37.153Z,14.83
2018-09-13T21:12:05.463Z,7.27
2018-09-13T21:14:33.841Z,7.40
2018-09-13T21:17:02.176Z,8.57
2018-09-13T21:19:30.425Z,10.37
2018-09-13T21:21:58.818Z,8.60
2018-09-13T21:24:27.150Z,12.57
2018-09-13T21:26:57.124Z,10.20
2018-09-13T21:29:25.454Z,9.13
2018-09-13T21:31:53.789Z,10.67
2018-09-13T21:34:22.264Z,7.67
2018-09-13T21:36:50.710Z,9.30
2018-09-13T21:39:19.069Z,11.40
2018-09-13T21:41:47.528Z,8.70
2018-09-13T21:44:16.010Z,8.47
2018-09-13T21:46:44.304Z,8.17
2018-09-13T21:49:12.831Z,9.07
2018-09-13T21:51:41.271Z,10.77
2018-09-13T21:54:09.658Z,7.97
2018-09-13T21:56:38.010Z,12.20
2018-09-13T21:59:06.517Z,9.97
2018-09-13T22:01:34.862Z,7.80
2018-09-13T22:04:03.568Z,10.87
2018-09-13T22:06:31.936Z,9.20
2018-09-13T22:09:09.137Z,9.87
2018-09-13T22:11:39.027Z,9.60
2018-09-13T22:14:07.628Z,8.93
2018-09-13T22:16:36.026Z,8.97
2018-09-13T22:19:04.445Z,9.83
2018-09-13T22:21:33.286Z,8.53
2018-09-13T22:24:01.764Z,9.27
2018-09-13T22:26:30.510Z,11.20
2018-09-13T22:28:58.978Z,10.80
2018-09-13T22:31:27.287Z,8.80
2018-09-13T22:33:55.992Z,12.30
2018-09-13T22:36:28.492Z,11.33
2018-09-13T22:39:01.252Z,11.30
2018-09-13T22:41:29.699Z,11.17
2018-09-13T22:43:58.072Z,10.00
2018-09-13T22:46:26.456Z,11.43
2018-09-13T22:48:54.850Z,13.40
2018-09-13T22:51:23.251Z,10.10
2018-09-13T22:53:51.588Z,12.17
2018-09-13T22:56:20.057Z,10.80
2018-09-13T22:58:48.410Z,12.13
2018-09-13T23:01:16.720Z,10.50
2018-09-13T23:03:45.021Z,13.43
2018-09-13T23:06:13.375Z,10.90
2018-09-13T23:08:41.817Z,12.73
2018-09-13T23:11:10.207Z,15.27
2018-09-13T23:13:38.548Z,13.07
2018-09-13T23:16:07.112Z,12.43
2018-09-13T23:18:35.446Z,16.70
2018-09-13T23:21:03.793Z,15.23
2018-09-13T23:23:32.150Z,13.60
2018-09-13T23:26:00.541Z,16.73
2018-09-13T23:28:28.896Z,14.27
2018-09-13T23:30:57.335Z,18.57
2018-09-13T23:33:25.690Z,22.13
2018-09-13T23:35:54.048Z,19.10
2018-09-13T23:38:22.346Z,20.80
2018-09-13T23:40:50.790Z,22.50
2018-09-13T23:43:19.110Z,19.23
2018-09-13T23:45:47.448Z,21.27
2018-09-13T23:48:15.872Z,23.93
2018-09-13T23:50:44.257Z,23.70
2018-09-13T23:53:12.818Z,26.80
2018-09-13T23:55:41.531Z,26.17
2018-09-13T23:58:09.903Z,26.00
